Time;durP1;ratioP1;P1;durP2;ratioP2;P2;SDS_P1;SDS_P2;PMS_P1;PMS_P2;Temp;Humidity;BMP_temperature;BMP_pressure;BME280_temperature;BME280_humidity;BME280_pressure;Samples;Min_cycle;Max_cycle;Signal;HPM_P1;HPM_P2
2021/06/23 00:00:30;;;;;;;18.55;10.13;;;;;;;11.58;100.00;101996.31;5230473;28;20028;-85
2021/06/23 00:03:02;;;;;;;20.75;9.95;;;;;;;11.57;100.00;101994.63;5236219;28;20020;-84
2021/06/23 00:05:32;;;;;;;20.92;9.70;;;;;;;11.59;100.00;101996.19;5249142;28;20483;-84
2021/06/23 00:08:03;;;;;;;22.55;9.38;;;;;;;11.72;100.00;101998.56;5263747;28;20020;-84
2021/06/23 00:10:33;;;;;;;17.90;10.10;;;;;;;11.72;100.00;101995.03;5265024;28;20032;-84
2021/06/23 00:13:05;;;;;;;19.70;9.57;;;;;;;11.70;100.00;101997.00;5266729;28;20102;-84
2021/06/23 00:15:37;;;;;;;19.88;9.88;;;;;;;11.65;100.00;101992.94;5251924;28;20023;-85
2021/06/23 00:18:08;;;;;;;23.60;10.15;;;;;;;11.63;100.00;102002.13;5251586;28;20043;-84
2021/06/23 00:20:38;;;;;;;16.42;9.68;;;;;;;11.67;100.00;101999.00;5264923;28;20483;-84
2021/06/23 00:23:09;;;;;;;21.33;9.80;;;;;;;11.60;100.00;101997.91;5248484;28;20515;-85
2021/06/23 00:25:39;;;;;;;23.52;11.45;;;;;;;11.69;100.00;102006.91;5244063;28;20039;-84
2021/06/23 00:28:10;;;;;;;18.83;8.65;;;;;;;11.68;100.00;102011.44;5257588;28;20170;-84
2021/06/23 00:30:41;;;;;;;24.17;9.88;;;;;;;11.68;100.00;102005.22;5244022;28;20067;-84
2021/06/23 00:33:18;;;;;;;22.42;9.38;;;;;;;11.66;100.00;102001.84;5244156;28;20261;-84
2021/06/23 00:35:49;;;;;;;24.45;10.63;;;;;;;11.60;100.00;102000.59;5244381;28;20388;-84
2021/06/23 00:38:20;;;;;;;17.38;9.27;;;;;;;11.57;100.00;102002.69;5251264;28;20017;-85
2021/06/23 00:40:50;;;;;;;27.92;9.75;;;;;;;11.55;100.00;102000.16;5244096;28;20028;-84
2021/06/23 00:43:22;;;;;;;24.45;9.43;;;;;;;11.57;100.00;102003.53;5248012;28;20028;-84
2021/06/23 00:45:53;;;;;;;27.23;10.77;;;;;;;11.53;100.00;102007.50;5261840;28;20063;-84
2021/06/23 00:48:28;;;;;;;23.17;11.27;;;;;;;11.53;100.00;102012.03;5259421;28;20047;-84
2021/06/23 00:51:02;;;;;;;26.58;10.02;;;;;;;11.50;100.00;102004.28;5251489;28;20387;-84
2021/06/23 00:53:33;;;;;;;24.95;10.93;;;;;;;11.42;100.00;101999.63;5255646;28;20112;-84
2021/06/23 00:56:04;;;;;;;29.77;10.68;;;;;;;11.50;100.00;102001.59;5243641;28;20111;-84
2021/06/23 00:58:34;;;;;;;32.15;10.30;;;;;;;11.46;100.00;101990.28;5249452;28;20510;-85
2021/06/23 01:01:05;;;;;;;18.95;10.30;;;;;;;11.43;100.00;102000.47;5259611;28;20028;-84
2021/06/23 01:03:35;;;;;;;23.85;11.65;;;;;;;11.41;100.00;101993.41;5261309;28;20103;-85
2021/06/23 01:06:07;;;;;;;25.90;11.00;;;;;;;11.46;100.00;102005.56;5230110;28;20024;-84
2021/06/23 01:08:38;;;;;;;27.88;11.50;;;;;;;11.43;100.00;101995.09;5263783;28;20038;-85
2021/06/23 01:11:08;;;;;;;32.47;11.55;;;;;;;11.47;100.00;101999.19;5269366;28;20110;-85
2021/06/23 01:14:05;;;;;;;22.65;11.52;;;;;;;11.41;100.00;101998.78;5255947;28;20016;-85
2021/06/23 01:16:37;;;;;;;;;;;;;;;11.39;100.00;101992.69;5235719;28;20082;-84
2021/06/23 01:19:10;;;;;;;20.90;11.38;;;;;;;11.37;100.00;101994.66;5247691;28;19908;-84
2021/06/23 01:21:43;;;;;;;26.95;11.98;;;;;;;11.42;100.00;101999.63;5248155;28;20020;-84
2021/06/23 01:24:14;;;;;;;21.92;11.43;;;;;;;11.36;100.00;101998.34;5247462;28;20035;-84
2021/06/23 01:26:45;;;;;;;30.83;12.15;;;;;;;11.33;100.00;102005.84;5247903;28;20025;-84
2021/06/23 01:29:15;;;;;;;25.27;11.80;;;;;;;11.39;100.00;101999.88;5242160;28;20558;-84
2021/06/23 01:31:46;;;;;;;26.80;12.55;;;;;;;11.39;100.00;102006.09;5248695;28;20024;-84
2021/06/23 01:34:16;;;;;;;27.02;12.43;;;;;;;11.35;100.00;102004.72;5260963;28;20069;-84
2021/06/23 01:36:47;;;;;;;23.77;12.48;;;;;;;11.39;100.00;102011.47;5254638;28;20471;-84
2021/06/23 01:39:18;;;;;;;25.50;12.45;;;;;;;11.44;100.00;102005.69;5246896;28;20031;-84
2021/06/23 01:41:48;;;;;;;24.27;11.77;;;;;;;11.42;100.00;102010.38;5256189;28;20032;-84
2021/06/23 01:44:23;;;;;;;35.50;12.68;;;;;;;11.45;100.00;102007.41;5253441;28;20020;-84
2021/06/23 01:47:02;;;;;;;29.45;12.70;;;;;;;11.45;100.00;102015.47;5257177;28;20491;-84
2021/06/23 01:49:33;;;;;;;29.98;13.77;;;;;;;11.43;100.00;102014.75;5252576;28;20055;-84
2021/06/23 01:52:04;;;;;;;35.30;13.52;;;;;;;11.43;100.00;102019.28;5255203;28;20500;-84
2021/06/23 01:54:39;;;;;;;31.30;12.70;;;;;;;11.44;100.00;102027.19;5261005;28;20032;-84
2021/06/23 01:57:11;;;;;;;;;;;;;;;11.40;100.00;102026.63;5248028;28;20024;-84
2021/06/23 01:59:42;;;;;;;31.77;13.27;;;;;;;11.46;100.00;102021.69;5258409;28;19908;-84
2021/06/23 02:02:22;;;;;;;24.77;13.15;;;;;;;11.45;100.00;102031.59;5244849;28;20141;-84
2021/06/23 02:04:58;;;;;;;32.88;13.60;;;;;;;11.46;100.00;102033.28;5242231;28;20030;-84
2021/06/23 02:07:58;;;;;;;38.10;13.43;;;;;;;11.47;100.00;102034.97;5249001;28;20070;-84
2021/06/23 02:10:57;;;;;;;28.23;11.75;;;;;;;11.45;100.00;102034.28;5260124;28;20364;-84
2021/06/23 02:13:28;;;;;;;25.92;13.32;;;;;;;11.43;100.00;102033.56;5237599;28;20406;-84
2021/06/23 02:16:13;;;;;;;27.17;13.23;;;;;;;11.48;100.00;102028.59;5257064;28;20032;-84
2021/06/23 02:18:44;;;;;;;31.65;14.25;;;;;;;11.48;100.00;102036.66;5261021;28;20056;-84
2021/06/23 02:21:15;;;;;;;34.05;14.38;;;;;;;11.45;100.00;102033.44;5260894;28;20051;-84
2021/06/23 02:23:46;;;;;;;32.85;13.68;;;;;;;11.48;100.00;102031.28;5255247;28;20024;-84
2021/06/23 02:26:16;;;;;;;26.88;13.30;;;;;;;11.53;100.00;102031.69;5254630;28;20035;-84
2021/06/23 02:28:47;;;;;;;30.85;13.20;;;;;;;11.52;100.00;102032.69;5258702;28;20033;-84
2021/06/23 02:31:18;;;;;;;25.45;13.98;;;;;;;11.50;100.00;102029.31;5260619;28;20021;-84
2021/06/23 02:33:54;;;;;;;30.50;13.25;;;;;;;11.57;100.00;102026.88;5248229;28;20020;-84
2021/06/23 02:36:25;;;;;;;27.45;13.80;;;;;;;11.55;100.00;102035.09;5260603;28;20028;-84
2021/06/23 02:38:56;;;;;;;25.92;14.13;;;;;;;11.54;100.00;102032.53;5261586;28;20149;-84
2021/06/23 02:41:27;;;;;;;31.08;13.38;;;;;;;11.58;100.00;102037.50;5247040;28;20043;-84
2021/06/23 02:43:57;;;;;;;26.25;13.38;;;;;;;11.56;100.00;102039.47;5247909;28;20545;-84
2021/06/23 02:46:28;;;;;;;28.42;15.57;;;;;;;11.50;100.00;102039.22;5259610;28;20024;-84
2021/06/23 02:48:59;;;;;;;26.67;14.15;;;;;;;11.52;100.00;102046.13;5259418;28;20031;-85
2021/06/23 02:51:37;;;;;;;28.85;13.38;;;;;;;11.49;100.00;102042.88;5245811;28;20028;-84
2021/06/23 02:54:08;;;;;;;32.08;14.95;;;;;;;11.53;100.00;102041.59;5260120;28;20020;-84
2021/06/23 02:56:39;;;;;;;26.17;14.70;;;;;;;11.52;100.00;102048.81;5258302;28;20032;-85
2021/06/23 02:59:11;;;;;;;28.80;13.38;;;;;;;11.51;100.00;102047.13;5248475;28;20078;-85
2021/06/23 03:01:41;;;;;;;27.20;14.73;;;;;;;11.44;100.00;102045.13;5246905;28;20025;-85
2021/06/23 03:04:12;;;;;;;27.83;14.13;;;;;;;11.44;100.00;102054.03;5259095;28;20028;-85
2021/06/23 03:06:42;;;;;;;25.98;13.70;;;;;;;11.45;100.00;102053.09;5259864;28;20027;-85
2021/06/23 03:09:13;;;;;;;31.88;14.07;;;;;;;11.45;100.00;102046.88;5267297;28;20111;-85
2021/06/23 03:11:43;;;;;;;28.48;14.20;;;;;;;11.45;100.00;102055.78;5254017;28;20028;-85
2021/06/23 03:14:14;;;;;;;29.10;14.65;;;;;;;11.43;100.00;102056.88;5257158;28;20074;-85
2021/06/23 03:16:44;;;;;;;36.80;16.00;;;;;;;11.44;100.00;102056.72;5259892;28;20027;-84
2021/06/23 03:19:15;;;;;;;35.17;15.95;;;;;;;11.47;100.00;102051.09;5257516;28;20076;-85
2021/06/23 03:21:46;;;;;;;32.00;15.63;;;;;;;11.49;100.00;102051.78;5253767;28;20027;-85
2021/06/23 03:24:16;;;;;;;32.30;16.05;;;;;;;11.41;100.00;102046.28;5254060;28;20025;-85
2021/06/23 03:26:47;;;;;;;34.22;15.82;;;;;;;11.40;100.00;102053.50;5260158;28;20016;-85
2021/06/23 03:29:28;;;;;;;33.95;16.40;;;;;;;11.44;100.00;102058.56;5259632;28;20036;-85
2021/06/23 03:32:00;;;;;;;45.53;15.88;;;;;;;11.36;100.00;102060.16;5255882;28;20028;-84
2021/06/23 03:34:31;;;;;;;36.25;16.63;;;;;;;11.38;100.00;102068.06;5253640;28;20027;-85
2021/06/23 03:37:02;;;;;;;38.35;16.25;;;;;;;11.35;100.00;102065.66;5259292;28;20024;-85
2021/06/23 03:39:33;;;;;;;41.10;18.40;;;;;;;11.28;100.00;102061.84;5262046;28;20063;-85
2021/06/23 03:42:04;;;;;;;39.85;17.42;;;;;;;11.26;100.00;102067.38;5258773;28;20027;-85
2021/06/23 03:44:35;;;;;;;36.65;18.70;;;;;;;11.24;100.00;102066.63;5253580;28;20380;-85
2021/06/23 03:47:06;;;;;;;32.88;17.95;;;;;;;11.23;100.00;102066.78;5253810;28;20035;-85
2021/06/23 03:49:37;;;;;;;41.58;17.92;;;;;;;11.20;100.00;102064.41;5258702;28;20036;-84
2021/06/23 03:52:07;;;;;;;33.78;17.50;;;;;;;11.17;100.00;102072.72;5259406;28;20482;-84
2021/06/23 03:54:38;;;;;;;37.92;17.58;;;;;;;11.11;100.00;102074.13;5254149;28;20048;-84
2021/06/23 03:57:08;;;;;;;42.70;19.17;;;;;;;11.06;100.00;102073.72;5250423;28;20020;-84
2021/06/23 03:59:39;;;;;;;44.85;19.25;;;;;;;11.03;100.00;102074.81;5256102;28;20077;-84
2021/06/23 04:02:09;;;;;;;43.10;17.85;;;;;;;11.01;100.00;102068.75;5262327;28;20506;-84
2021/06/23 04:04:40;;;;;;;40.47;18.90;;;;;;;10.96;100.00;102071.00;5257195;28;20370;-84
2021/06/23 04:07:10;;;;;;;36.78;18.35;;;;;;;11.01;100.00;102075.97;5252405;28;20020;-83
2021/06/23 04:09:44;;;;;;;39.58;20.42;;;;;;;11.01;100.00;102075.97;5266285;28;20387;-84
2021/06/23 04:12:14;;;;;;;46.63;18.70;;;;;;;10.97;100.00;102072.69;5252870;28;20081;-84
2021/06/23 04:14:45;;;;;;;43.17;19.90;;;;;;;10.96;100.00;102072.84;5251792;28;20021;-84
2021/06/23 04:17:15;;;;;;;44.05;19.85;;;;;;;10.94;100.00;102072.97;5253727;28;20056;-84
2021/06/23 04:19:46;;;;;;;41.70;19.42;;;;;;;10.98;100.00;102071.72;5249931;28;20020;-84
2021/06/23 04:22:17;;;;;;;41.47;20.08;;;;;;;10.98;100.00;102071.72;5255127;28;20020;-83
2021/06/23 04:24:47;;;;;;;33.58;18.40;;;;;;;10.91;100.00;102080.47;5262696;28;20017;-84
2021/06/23 04:27:21;;;;;;;40.67;19.63;;;;;;;10.98;100.00;102074.38;5245440;28;20051;-84
2021/06/23 04:29:52;;;;;;;38.47;19.27;;;;;;;10.99;100.00;102083.28;5258145;28;20430;-84
2021/06/23 04:32:22;;;;;;;39.72;18.42;;;;;;;11.01;100.00;102081.34;5257612;28;20089;-84
2021/06/23 04:34:53;;;;;;;35.97;19.38;;;;;;;11.01;100.00;102084.03;5246434;28;20017;-84
2021/06/23 04:37:23;;;;;;;40.22;19.58;;;;;;;11.04;100.00;102081.88;5244944;28;20024;-84
2021/06/23 04:39:54;;;;;;;44.03;18.50;;;;;;;11.04;100.00;102081.03;5258521;28;20021;-84
2021/06/23 04:42:24;;;;;;;44.35;18.60;;;;;;;10.99;100.00;102094.03;5245996;28;20111;-84
2021/06/23 04:44:56;;;;;;;39.30;17.83;;;;;;;11.02;100.00;102089.25;5236217;28;20045;-84
2021/06/23 04:47:27;;;;;;;39.63;19.10;;;;;;;11.04;100.00;102084.56;5224264;28;20021;-84
2021/06/23 04:49:57;;;;;;;43.47;18.52;;;;;;;11.11;100.00;102084.88;5234414;28;20035;-84
2021/06/23 04:52:28;;;;;;;36.67;17.45;;;;;;;11.11;100.00;102080.34;5240702;28;20029;-83
2021/06/23 04:54:58;;;;;;;36.17;17.55;;;;;;;11.15;100.00;102084.47;5235375;28;20066;-84
2021/06/23 04:57:29;;;;;;;32.83;16.98;;;;;;;11.19;100.00;102070.75;5231494;28;20476;-84
2021/06/23 04:59:59;;;;;;;32.33;17.35;;;;;;;11.23;100.00;102085.59;5244790;28;20472;-84
2021/06/23 05:02:29;;;;;;;40.45;15.70;;;;;;;11.25;100.00;102086.31;5238058;28;20128;-84
2021/06/23 05:05:00;;;;;;;35.45;16.58;;;;;;;11.27;100.00;102085.16;5225365;28;20361;-85
2021/06/23 05:07:30;;;;;;;38.22;16.88;;;;;;;11.28;100.00;102092.22;5243249;28;20044;-85
2021/06/23 05:10:01;;;;;;;36.60;16.60;;;;;;;11.32;100.00;102088.28;5231523;28;20388;-85
2021/06/23 05:12:31;;;;;;;34.88;15.75;;;;;;;11.37;100.00;102091.41;5235876;28;20024;-85
2021/06/23 05:15:02;;;;;;;39.08;17.40;;;;;;;11.38;100.00;102089.56;5237763;28;20033;-85
2021/06/23 05:17:33;;;;;;;37.95;16.05;;;;;;;11.43;100.00;102089.13;5234417;28;20020;-85
2021/06/23 05:20:05;;;;;;;36.30;15.50;;;;;;;11.49;100.00;102092.09;5230974;28;20108;-85
2021/06/23 05:22:35;;;;;;;32.47;15.57;;;;;;;11.54;100.00;102095.19;5227441;28;20028;-85
2021/06/23 05:25:06;;;;;;;33.58;16.05;;;;;;;11.51;100.00;102094.66;5231848;28;20023;-85
2021/06/23 05:27:37;;;;;;;28.42;14.70;;;;;;;11.60;100.00;102091.13;5233359;28;20079;-84
2021/06/23 05:30:07;;;;;;;26.98;14.75;;;;;;;11.58;100.00;102085.88;5248080;28;20025;-84
2021/06/23 05:32:38;;;;;;;31.42;15.15;;;;;;;11.65;100.00;102089.69;5259102;28;20474;-85
2021/06/23 05:35:09;;;;;;;26.40;13.77;;;;;;;11.68;100.00;102091.25;5252037;28;20016;-84
2021/06/23 05:37:39;;;;;;;32.38;15.20;;;;;;;11.70;100.00;102093.78;5254956;28;20368;-85
2021/06/23 05:40:10;;;;;;;35.55;15.00;;;;;;;11.70;100.00;102089.28;5245004;28;20058;-84
2021/06/23 05:42:40;;;;;;;32.97;15.15;;;;;;;11.73;100.00;102098.88;5250062;28;20028;-84
2021/06/23 05:45:11;;;;;;;32.05;15.30;;;;;;;11.73;100.00;102099.72;5252741;28;20094;-84
2021/06/23 05:47:42;;;;;;;33.42;15.32;;;;;;;11.74;100.00;102100.56;5255821;28;20120;-85
2021/06/23 05:50:12;;;;;;;29.98;14.43;;;;;;;11.82;100.00;102101.59;5251720;28;20032;-86
2021/06/23 05:52:43;;;;;;;36.83;15.95;;;;;;;11.87;100.00;102098.47;5247973;28;20024;-85
2021/06/23 05:55:20;;;;;;;27.40;15.70;;;;;;;11.88;100.00;102095.63;5249314;28;20047;-86
2021/06/23 05:57:55;;;;;;;38.17;16.10;;;;;;;11.92;100.00;102107.78;5249459;28;20109;-86
2021/06/23 06:00:26;;;;;;;24.73;13.98;;;;;;;11.99;100.00;102105.38;5247475;28;20076;-85
2021/06/23 06:02:56;;;;;;;23.52;13.75;;;;;;;12.02;100.00;102109.63;5250269;28;20025;-85
2021/06/23 06:05:27;;;;;;;31.42;14.75;;;;;;;12.11;100.00;102104.22;5255999;28;20013;-85
2021/06/23 06:07:57;;;;;;;30.92;14.38;;;;;;;12.15;100.00;102099.41;5251267;28;20047;-86
2021/06/23 06:10:28;;;;;;;31.00;13.18;;;;;;;12.21;100.00;102112.25;5246586;28;20032;-85
2021/06/23 06:12:58;;;;;;;27.98;15.20;;;;;;;12.27;100.00;102100.06;5242528;28;20067;-85
2021/06/23 06:15:29;;;;;;;28.00;14.77;;;;;;;12.39;100.00;102101.56;5235069;28;20021;-83
2021/06/23 06:18:07;;;;;;;26.45;13.93;;;;;;;12.54;100.00;102093.84;5239853;28;20117;-84
2021/06/23 06:20:37;;;;;;;31.77;13.55;;;;;;;12.64;100.00;102092.81;5251920;28;20170;-84
2021/06/23 06:23:08;;;;;;;23.98;13.18;;;;;;;12.77;100.00;102092.47;5239250;28;20066;-84
2021/06/23 06:25:39;;;;;;;29.75;12.75;;;;;;;12.92;100.00;102103.59;5242994;28;20028;-85
2021/06/23 06:28:09;;;;;;;26.08;11.80;;;;;;;13.09;100.00;102102.75;5239683;28;20025;-84
2021/06/23 06:30:40;;;;;;;30.08;11.77;;;;;;;13.16;100.00;102103.00;5239192;28;20033;-85
2021/06/23 06:33:10;;;;;;;21.52;11.25;;;;;;;13.08;100.00;102116.38;5240366;28;20029;-86
2021/06/23 06:35:41;;;;;;;28.48;13.23;;;;;;;13.12;100.00;102120.47;5245678;28;20016;-85
2021/06/23 06:38:12;;;;;;;27.55;12.32;;;;;;;13.10;100.00;102127.84;5253943;28;20059;-85
2021/06/23 06:40:43;;;;;;;26.88;12.40;;;;;;;13.29;100.00;102129.59;5254889;28;20029;-86
2021/06/23 06:43:13;;;;;;;22.60;11.65;;;;;;;13.07;100.00;102131.69;5258561;28;20025;-84
2021/06/23 06:45:46;;;;;;;25.70;10.90;;;;;;;13.07;100.00;102133.56;5230407;28;20498;-84
2021/06/23 06:48:18;;;;;;;25.17;11.90;;;;;;;13.05;100.00;102135.53;5248379;28;20028;-84
2021/06/23 06:50:50;;;;;;;24.00;10.82;;;;;;;13.04;100.00;102134.69;5234684;28;20029;-84
2021/06/23 06:53:20;;;;;;;22.73;11.73;;;;;;;13.04;100.00;102132.00;5228864;28;20043;-84
2021/06/23 06:55:52;;;;;;;30.45;12.70;;;;;;;12.89;100.00;102130.81;5242972;28;20021;-84
2021/06/23 06:58:22;;;;;;;31.90;13.57;;;;;;;12.84;100.00;102133.09;5240732;28;20029;-84
2021/06/23 07:00:52;;;;;;;32.75;11.63;;;;;;;12.95;100.00;102139.16;5237315;28;20376;-85
2021/06/23 07:03:23;;;;;;;29.00;14.05;;;;;;;12.93;100.00;102126.81;5221967;28;20031;-85
2021/06/23 07:05:54;;;;;;;30.42;13.27;;;;;;;13.16;100.00;102136.19;5228754;28;20028;-84
2021/06/23 07:08:24;;;;;;;29.20;13.23;;;;;;;13.22;100.00;102140.16;5241710;28;20032;-84
2021/06/23 07:10:55;;;;;;;23.60;12.60;;;;;;;13.33;100.00;102131.00;5220275;28;20035;-85
2021/06/23 07:13:25;;;;;;;31.15;13.15;;;;;;;13.20;100.00;102136.72;5232601;28;20028;-85
2021/06/23 07:15:56;;;;;;;25.48;12.88;;;;;;;13.32;100.00;102132.00;5238398;28;20024;-84
2021/06/23 07:18:26;;;;;;;20.63;11.52;;;;;;;13.31;100.00;102131.16;5233056;28;20598;-84
2021/06/23 07:20:57;;;;;;;31.55;13.27;;;;;;;13.44;100.00;102137.00;5231391;28;20028;-85
2021/06/23 07:23:27;;;;;;;25.23;11.70;;;;;;;13.60;100.00;102135.44;5246442;28;20032;-84
2021/06/23 07:25:58;;;;;;;22.77;11.13;;;;;;;13.61;100.00;102138.00;5245478;28;20040;-84
2021/06/23 07:28:40;;;;;;;24.90;11.32;;;;;;;13.68;100.00;102133.69;5239508;28;20048;-85
2021/06/23 07:31:13;;;;;;;25.20;11.48;;;;;;;13.68;100.00;102138.22;5239123;28;20023;-85
2021/06/23 07:33:52;;;;;;;24.95;11.10;;;;;;;13.69;100.00;102138.06;5242472;28;20065;-85
2021/06/23 07:36:35;;;;;;;23.75;10.98;;;;;;;13.65;100.00;102139.38;5232281;28;20020;-85
2021/06/23 07:39:11;;;;;;;20.65;10.57;;;;;;;13.68;100.00;102141.78;5238522;28;20036;-85
2021/06/23 07:41:45;;;;;;;25.90;10.57;;;;;;;13.72;100.00;102137.78;5255215;28;20047;-84
2021/06/23 07:44:22;;;;;;;20.83;10.63;;;;;;;13.84;100.00;102137.53;5252359;28;20029;-85
2021/06/23 07:46:57;;;;;;;21.98;10.23;;;;;;;13.96;100.00;102129.03;5234629;28;20127;-84
2021/06/23 07:49:30;;;;;;;23.70;11.20;;;;;;;13.94;100.00;102133.72;5239484;28;20039;-85
2021/06/23 07:52:12;;;;;;;24.63;11.30;;;;;;;13.98;100.00;102135.09;5254324;28;20074;-84
2021/06/23 07:54:50;;;;;;;24.38;9.82;;;;;;;14.00;100.00;102138.47;5235979;28;20025;-85
2021/06/23 08:11:46;;;;;;;20.55;8.90;;;;;;;14.41;100.00;102149.56;5228824;28;20387;-84
2021/06/23 08:14:16;;;;;;;21.77;9.70;;;;;;;14.31;100.00;102145.25;5224269;28;20385;-85
2021/06/23 08:16:48;;;;;;;19.38;10.10;;;;;;;14.24;100.00;102151.31;5224164;28;20021;-84
2021/06/23 08:19:18;;;;;;;22.20;10.43;;;;;;;14.33;100.00;102154.06;5223490;28;20024;-84
2021/06/23 08:21:49;;;;;;;19.00;8.82;;;;;;;14.35;100.00;102154.75;5229335;28;20359;-85
2021/06/23 08:24:19;;;;;;;19.30;9.00;;;;;;;14.36;100.00;102148.38;5243769;28;20025;-85
2021/06/23 08:26:50;;;;;;;32.63;10.15;;;;;;;14.40;100.00;102153.25;5226857;28;20021;-85
2021/06/23 08:29:20;;;;;;;17.75;9.27;;;;;;;14.48;100.00;102160.59;5244756;28;20024;-85
2021/06/23 08:31:51;;;;;;;23.95;11.07;;;;;;;14.57;100.00;102169.59;5237216;28;20115;-84
2021/06/23 08:34:25;;;;;;;25.35;10.30;;;;;;;14.53;100.00;102160.13;5236207;28;20021;-84
2021/06/23 08:36:56;;;;;;;18.02;9.52;;;;;;;14.67;100.00;102154.13;5245769;28;20033;-83
2021/06/23 08:39:26;;;;;;;23.70;9.32;;;;;;;14.66;100.00;102157.81;5235537;28;20044;-84
2021/06/23 08:41:56;;;;;;;20.73;10.10;;;;;;;14.65;100.00;102158.81;5236208;28;20017;-84
2021/06/23 08:44:27;;;;;;;19.42;9.73;;;;;;;14.58;100.00;102155.94;5250139;28;20029;-84
2021/06/23 08:47:00;;;;;;;25.52;9.85;;;;;;;14.62;100.00;102159.16;5237021;28;20031;-84
2021/06/23 08:49:31;;;;;;;20.08;9.55;;;;;;;14.69;100.00;102161.03;5251620;28;20112;-84
2021/06/23 08:52:01;;;;;;;21.60;9.98;;;;;;;14.77;100.00;102161.09;5249528;28;20024;-84
2021/06/23 08:54:32;;;;;;;17.65;9.23;;;;;;;14.93;100.00;102152.22;5239171;28;20320;-84
2021/06/23 08:57:05;;;;;;;17.85;9.13;;;;;;;15.12;100.00;102155.66;5237788;28;20020;-84
2021/06/23 08:59:39;;;;;;;20.45;8.38;;;;;;;15.20;100.00;102163.78;5244101;28;20032;-84
2021/06/23 09:02:14;;;;;;;24.53;8.33;;;;;;;15.25;100.00;102159.56;5250742;28;20028;-83
2021/06/23 09:04:55;;;;;;;20.20;9.20;;;;;;;15.35;100.00;102151.31;5232205;28;20287;-84
2021/06/23 09:08:00;;;;;;;18.98;8.90;;;;;;;15.46;100.00;102147.44;5248734;28;20036;-84
2021/06/23 09:10:35;;;;;;;25.45;8.73;;;;;;;15.59;100.00;102155.91;5208875;28;20033;-84
2021/06/23 09:13:08;;;;;;;18.25;8.98;;;;;;;15.55;100.00;102149.97;5241249;28;20392;-84
2021/06/23 09:15:55;;;;;;;26.55;8.60;;;;;;;15.57;100.00;102155.25;5233159;28;20159;-83
2021/06/23 09:18:36;;;;;;;21.17;8.35;;;;;;;15.54;100.00;102151.00;5235468;28;20038;-83
2021/06/23 09:21:15;;;;;;;14.68;9.13;;;;;;;15.59;100.00;102155.06;5249866;28;20086;-84
2021/06/23 09:23:54;;;;;;;19.60;8.85;;;;;;;15.66;100.00;102150.69;5226843;28;20021;-84
2021/06/23 09:26:35;;;;;;;25.48;8.00;;;;;;;15.78;100.00;102158.34;5230841;28;20398;-84
2021/06/23 09:29:07;;;;;;;18.25;8.52;;;;;;;15.84;100.00;102162.22;5237492;28;20044;-84
2021/06/23 09:31:54;;;;;;;20.88;8.10;;;;;;;15.90;100.00;102150.72;5243333;28;20036;-84
2021/06/23 09:34:36;;;;;;;21.08;7.18;;;;;;;15.88;100.00;102163.56;5231926;28;20029;-84
2021/06/23 09:37:26;;;;;;;16.95;7.28;;;;;;;15.89;100.00;102159.00;5242161;28;20036;-84
2021/06/23 09:40:11;;;;;;;17.23;8.63;;;;;;;15.94;100.00;102162.06;5226642;28;20427;-84
2021/06/23 09:42:44;;;;;;;18.10;7.47;;;;;;;15.93;100.00;102163.06;5244420;28;20028;-84
2021/06/23 09:45:16;;;;;;;24.08;8.52;;;;;;;15.91;100.00;102168.63;5238666;28;20037;-84
2021/06/23 09:47:48;;;;;;;17.02;8.30;;;;;;;15.87;100.00;102161.91;5236452;28;20051;-84
2021/06/23 09:50:21;;;;;;;15.52;7.45;;;;;;;15.73;100.00;102162.56;5236601;28;20036;-83
2021/06/23 09:52:54;;;;;;;14.27;7.43;;;;;;;15.75;100.00;102165.94;5247883;28;20051;-83
2021/06/23 09:55:38;;;;;;;19.45;8.40;;;;;;;15.80;100.00;102167.13;5238667;28;20086;-84
2021/06/23 09:58:13;;;;;;;20.02;8.15;;;;;;;16.00;100.00;102167.63;5240473;28;20074;-83
2021/06/23 10:01:06;;;;;;;16.67;8.27;;;;;;;16.13;100.00;102161.69;5241597;28;20048;-84
2021/06/23 10:03:57;;;;;;;12.65;5.97;;;;;;;16.36;100.00;102159.13;5233949;28;20029;-84
2021/06/23 10:06:33;;;;;;;17.65;7.43;;;;;;;16.60;100.00;102165.50;5241760;28;20059;-84
2021/06/23 10:09:26;;;;;;;19.17;6.53;;;;;;;16.66;100.00;102167.50;5248945;28;20020;-84
2021/06/23 10:11:56;;;;;;;15.02;6.15;;;;;;;16.82;100.00;102164.78;5236783;28;20035;-84
2021/06/23 10:14:30;;;;;;;15.70;5.75;;;;;;;16.95;100.00;102165.06;5247419;28;20062;-84
2021/06/23 10:17:03;;;;;;;10.93;5.78;;;;;;;16.96;100.00;102163.19;5240094;28;20082;-84
2021/06/23 10:19:34;;;;;;;15.15;7.10;;;;;;;17.07;100.00;102162.81;5238799;28;20319;-84
2021/06/23 10:22:06;;;;;;;18.02;7.97;;;;;;;17.24;100.00;102160.84;5225972;28;20037;-84
2021/06/23 10:24:38;;;;;;;14.13;6.93;;;;;;;17.45;100.00;102158.34;5243115;28;20031;-83
2021/06/23 10:27:11;;;;;;;19.15;7.05;;;;;;;17.59;100.00;102163.00;5236287;28;20031;-84
2021/06/23 10:29:43;;;;;;;20.00;6.38;;;;;;;17.76;100.00;102160.19;5229356;28;20118;-83
2021/06/23 10:32:13;;;;;;;11.93;5.85;;;;;;;17.87;100.00;102159.75;5233981;28;20021;-84
2021/06/23 10:34:44;;;;;;;19.70;7.03;;;;;;;17.87;100.00;102159.75;5238619;28;20039;-84
2021/06/23 10:37:15;;;;;;;14.75;6.13;;;;;;;17.88;100.00;102153.31;5224419;28;20032;-83
2021/06/23 10:39:47;;;;;;;14.52;6.03;;;;;;;17.83;100.00;102156.56;5224876;28;20547;-84
2021/06/23 10:42:21;;;;;;;19.20;7.55;;;;;;;17.82;100.00;102159.44;5226560;28;20028;-84
2021/06/23 10:44:56;;;;;;;14.80;7.10;;;;;;;17.75;100.00;102159.34;5236789;28;20538;-83
2021/06/23 10:47:30;;;;;;;15.02;7.18;;;;;;;17.80;100.00;102156.06;5238948;28;20869;-84
2021/06/23 10:50:01;;;;;;;19.30;7.63;;;;;;;18.07;100.00;102160.06;5236062;28;20383;-84
2021/06/23 10:52:36;;;;;;;17.33;6.63;;;;;;;18.00;100.00;102151.00;5232415;28;20021;-83
2021/06/23 10:55:27;;;;;;;19.65;8.15;;;;;;;18.09;100.00;102158.03;5232796;28;20552;-84
2021/06/23 10:58:09;;;;;;;23.90;7.43;;;;;;;18.21;100.00;102161.97;5224940;28;20434;-84
2021/06/23 11:00:40;;;;;;;16.02;7.50;;;;;;;18.32;100.00;102157.97;5237433;28;20024;-84
2021/06/23 11:03:13;;;;;;;12.38;6.85;;;;;;;18.07;100.00;102157.38;5225489;28;20402;-84
2021/06/23 11:05:44;;;;;;;15.73;7.55;;;;;;;18.08;100.00;102156.34;5231768;28;20025;-84
2021/06/23 11:08:36;;;;;;;14.75;7.18;;;;;;;18.15;100.00;102160.00;5244500;28;20047;-84
2021/06/23 11:11:08;;;;;;;17.98;7.20;;;;;;;18.07;100.00;102155.53;5234121;28;20396;-84
2021/06/23 11:13:39;;;;;;;18.73;7.85;;;;;;;18.08;100.00;102159.06;5238369;28;20099;-84
2021/06/23 11:16:29;;;;;;;17.02;7.20;;;;;;;18.00;100.00;102156.41;5219069;28;20039;-84
2021/06/23 11:19:08;;;;;;;22.15;8.07;;;;;;;17.96;100.00;102155.94;5236027;28;20388;-84
2021/06/23 11:21:40;;;;;;;21.40;7.55;;;;;;;17.96;100.00;102153.22;5238126;28;20029;-84
2021/06/23 11:24:15;;;;;;;17.40;8.13;;;;;;;17.89;100.00;102165.00;5224689;28;20552;-84
2021/06/23 11:26:48;;;;;;;22.70;8.40;;;;;;;17.76;100.00;102157.47;5229492;28;20024;-84
2021/06/23 11:29:20;;;;;;;20.48;8.43;;;;;;;17.52;100.00;102159.31;5244513;28;20365;-84
2021/06/23 11:32:02;;;;;;;18.60;9.55;;;;;;;17.71;100.00;102157.97;5237562;28;20027;-84
2021/06/23 11:34:36;;;;;;;17.00;8.60;;;;;;;17.72;100.00;102165.13;5224427;28;20100;-84
2021/06/23 11:37:16;;;;;;;19.13;8.88;;;;;;;17.69;100.00;102160.03;5234848;28;20051;-84
2021/06/23 11:39:47;;;;;;;15.77;9.18;;;;;;;17.58;100.00;102160.47;5231283;28;20119;-83
2021/06/23 11:42:18;;;;;;;18.77;7.88;;;;;;;17.60;100.00;102161.97;5243602;28;20022;-85
2021/06/23 11:44:49;;;;;;;19.95;8.30;;;;;;;17.71;100.00;102151.72;5224047;28;20044;-84